Airfield :
LOGIN :

Register | Disclaimer

   EN    FR    IT 

 










Legend :    VFR   Marginal VFR   IFR   Intensive IFR   Very Intensive IFR
Visi :
Ceiling :
>= 8 km
>= 3000ft
5 to 8 km
1000 to 3000 ft
1500m to 5 km
500 to 1000 ft
800 to 1500m
200 to 500 ft
< 800m
< 200 ft
Symbols :   Thunderstorms  Fog  Heavy snow  Heavy precipitations  Wind > 20 kt
SIGMETs :     Misc.  Thunderstorms  Icing  Turbulence  Mountain Waves  Volcanic Ashes






- Airport Elevation : 162 ft
- IATA code : BOD


LFBD - Bordeaux / Merignac

CURRENT METAR :
  • 260630Z AUTO 15003KT 030V200 9999 -RA SCT026/// BKN041/// BKN068/// ///TCU 10/09 Q1010 TEMPO 27015G25KT 2500 -TSRA BKN020CB

EXPIRED METARs :
  • 260600Z AUTO 16003KT 9999 BKN038/// BKN056/// BKN130/// ///CB 09/09 Q1010 TEMPO 4500 -SHRA
  • 260530Z AUTO 19006KT 9999 FEW035/// SCT056/// ///TCU 09/09 Q1009 TEMPO 4500 -SHRA BKN020TCU FEW025CB
  • 260500Z AUTO 20006KT 9999 SCT046/// SCT062/// BKN210/// ///TCU 09/09 Q1009 TEMPO 4500 -SHRA BKN020TCU FEW025CB
  • 260430Z AUTO 19008KT 9999 -RA SCT037/// BKN064/// BKN110/// ///TCU 10/09 Q1009 TEMPO 4500 -SHRA BKN020TCU FEW025CB
  • 260400Z AUTO 16006KT 9999 FEW037/// SCT100/// BKN120/// ///CB 10/09 Q1009 TEMPO 4500 -SHRA

TAF TAF LFBD
Valid from the 26 at 06:00 until the 27 at 12:00 UTC


260500Z 2606/2712 23005KT 9999 SCT030 TX15/2613Z TN09/2606Z
TEMPO 2606/2621 4500 -SHRA BKN020TCU FEW025CB
PROB30
TEMPO 2608/2617 27015G25KT 2500 -TSRA BKN020CB
TEMPO 2621/2703 -SHRA BKN025TCU
BECMG 2705/2707 -RA BKN025
TEMPO 2708/2712 CAVOK
ATIS : +33 5 57 92 81 04



MET'MAP, your aeronautical weather chart ! - Copyright ORBIFLY December 2007 - Disclaimer

ORBIFLY MET'MAP TEAM :

Programming & Development : Alexandra Zaïnal
Concept & original design : Baudouin d'Aumeries
Assistance for programming : Marc-Olivier Méhu
Technical & hardware support : Manuel Goepfert

Contact : metmap@orbifly.com




SOURCES & CREDITS :

   NOAA